Time;durP1;ratioP1;P1;durP2;ratioP2;P2;SDS_P1;SDS_P2;PMS_P1;PMS_P2;Temp;Humidity;BMP_temperature;BMP_pressure;BME280_temperature;BME280_humidity;BME280_pressure;Samples;Min_cycle;Max_cycle;Signal;HPM_P1;HPM_P2
2021/12/09 00:16:59;;;;;;;;;;;;;;;;;;;;;
2021/12/09 00:31:29;;;;;;;;;;;;;;;;;;;;;
2021/12/09 04:02:07;;;;;;;;;;;;;;;;;;;;;
2021/12/09 05:46:08;;;;;;;53.40;27.40;;;;;;;-0.34;82.19;93979.84;828600;71;30144;-76
2021/12/09 06:01:11;;;;;;;63.92;31.85;;;;;;;-0.21;82.10;93997.58;822524;71;31556;-79
2021/12/09 06:16:12;;;;;;;57.78;31.55;;;;;;;-0.11;83.80;93996.97;821568;71;32100;-77
2021/12/09 06:31:15;;;;;;;68.95;33.83;;;;;;;0.25;81.79;94006.56;826573;71;33252;-75
2021/12/09 06:46:11;;;;;;;57.83;31.42;;;;;;;0.57;80.20;94003.68;820513;71;30341;-77
2021/12/09 07:01:09;;;;;;;65.00;35.88;;;;;;;0.73;79.71;93997.41;827776;71;30136;-76
2021/12/09 07:16:09;;;;;;;70.72;37.65;;;;;;;0.59;79.13;93987.97;833977;71;30275;-77
2021/12/09 07:31:16;;;;;;;81.70;39.63;;;;;;;0.36;79.09;93986.34;826278;71;32760;-76
2021/12/09 07:46:09;;;;;;;78.83;39.75;;;;;;;0.10;80.80;93992.91;827483;71;30396;-77
2021/12/09 08:01:15;;;;;;;73.00;38.20;;;;;;;0.49;80.46;93984.73;832867;71;33297;-77
2021/12/09 08:16:16;;;;;;;78.85;38.95;;;;;;;1.03;79.23;93969.91;827375;71;33175;-77
2021/12/09 08:31:14;;;;;;;76.75;40.38;;;;;;;1.31;77.86;93999.94;826534;71;32811;-78
2021/12/09 08:46:17;;;;;;;73.45;36.48;;;;;;;1.44;77.89;93967.78;826242;71;32775;-77
2021/12/09 09:16:12;;;;;;;75.60;38.33;;;;;;;2.12;75.72;93937.05;827329;71;29589;-74
2021/12/09 09:31:09;;;;;;;76.30;36.88;;;;;;;2.63;74.63;93913.80;827571;71;28765;-77
2021/12/09 09:46:09;;;;;;;87.05;41.90;;;;;;;3.93;71.94;93918.49;828637;71;28753;-78
2021/12/09 10:01:10;;;;;;;73.17;38.55;;;;;;;4.79;68.47;93865.60;833370;71;29092;-77
2021/12/09 10:16:21;;;;;;;85.32;44.58;;;;;;;6.12;65.92;93850.16;827387;71;28497;-75
2021/12/09 10:31:17;;;;;;;88.47;42.08;;;;;;;6.86;63.26;93849.90;827503;71;29312;-75
2021/12/09 10:46:12;;;;;;;69.22;39.18;;;;;;;7.28;61.72;93817.77;828022;71;28719;-76
2021/12/09 11:01:28;;;;;;;76.12;42.95;;;;;;;7.34;59.30;93796.27;824462;71;31895;-75
2021/12/09 11:16:09;;;;;;;66.30;38.50;;;;;;;7.84;60.01;93793.91;835027;71;28738;-76
2021/12/09 11:31:18;;;;;;;83.52;46.92;;;;;;;7.75;59.37;93787.28;820425;71;32037;-76
2021/12/09 11:46:08;;;;;;;90.55;48.58;;;;;;;7.52;59.80;93788.17;833451;71;28972;-76
2021/12/09 12:16:48;;;;;;;98.92;52.15;;;;;;;7.28;61.21;93734.78;826826;71;32538;-76
2021/12/09 12:31:39;;;;;;;104.03;51.05;;;;;;;7.03;62.11;93734.12;827647;71;29151;-75
2021/12/09 12:46:20;;;;;;;99.15;52.73;;;;;;;7.11;62.55;93727.48;817181;71;28555;-76
2021/12/09 13:01:19;;;;;;;102.82;52.98;;;;;;;5.79;65.50;93717.92;833391;71;30763;-76
2021/12/09 13:17:01;;;;;;;106.45;52.30;;;;;;;5.35;67.72;93714.98;827482;71;29369;-76
2021/12/09 13:31:48;;;;;;;123.07;57.78;;;;;;;4.99;69.61;93680.70;826754;71;32801;-76
2021/12/09 13:46:35;;;;;;;111.62;51.10;;;;;;;4.68;72.83;93687.92;827179;71;31604;-75
2021/12/09 14:01:09;;;;;;;102.90;52.85;;;;;;;4.59;72.89;93660.45;827492;71;30201;-75
2021/12/09 14:16:51;;;;;;;103.85;50.78;;;;;;;4.57;73.86;93674.23;826797;71;32742;-75
2021/12/09 14:31:28;;;;;;;112.35;62.23;;;;;;;4.45;74.52;93714.81;826109;71;33206;-76
2021/12/09 14:46:10;;;;;;;130.00;68.07;;;;;;;4.29;75.36;93662.71;829602;71;29693;-76
2021/12/09 15:16:12;;;;;;;155.37;78.15;;;;;;;3.94;76.83;93686.50;828655;71;32051;-76
2021/12/09 15:31:23;;;;;;;137.52;82.47;;;;;;;3.91;77.96;93637.19;826539;71;32663;-77
2021/12/09 15:46:18;;;;;;;140.92;72.15;;;;;;;3.69;77.96;93658.81;829393;71;31667;-82
2021/12/09 16:01:30;;;;;;;;;;;;;;;;;;;;;
2021/12/09 16:16:28;;;;;;;147.60;78.57;;;;;;;3.28;80.88;93609.16;833257;71;33154;-80
2021/12/09 17:01:33;;;;;;;131.27;73.52;;;;;;;3.39;81.25;93598.25;833403;71;32826;-79
2021/12/09 17:46:38;;;;;;;114.17;66.30;;;;;;;3.41;82.03;93595.64;826811;71;32774;-79
2021/12/09 18:01:17;;;;;;;112.35;60.23;;;;;;;3.09;82.15;93542.09;826405;71;32773;-79
2021/12/09 18:16:41;;;;;;;;;;;;;;;;;;;;;
2021/12/09 21:16:27;;;;;;;46.13;29.80;;;;;;;2.79;85.06;93524.30;833407;71;33548;-79
2021/12/09 21:46:19;;;;;;;33.15;20.27;;;;;;;3.18;85.76;93512.78;827188;71;32066;-79
2021/12/09 22:31:31;;;;;;;45.10;29.25;;;;;;;3.31;84.36;93533.98;833023;71;32902;-81
2021/12/09 23:01:58;;;;;;;34.27;24.18;;;;;;;3.59;84.85;93504.04;818672;71;32766;-81
2021/12/09 23:46:38;;;;;;;33.20;21.93;;;;;;;3.95;84.60;93472.66;833138;71;33106;-81
